Time;durP1;ratioP1;P1;durP2;ratioP2;P2;SDS_P1;SDS_P2;PMS_P1;PMS_P2;Temp;Humidity;BMP_temperature;BMP_pressure;BME280_temperature;BME280_humidity;BME280_pressure;Samples;Min_cycle;Max_cycle;Signal;HPM_P1;HPM_P2
2024/04/16 00:01:09;;;;;;;11.68;7.28;;;;;;;19.37;38.51;94168.81;5526021;26;19997;-66
2024/04/16 00:03:34;;;;;;;13.98;7.93;;;;;;;19.55;36.69;94153.25;5525687;26;20011;-67
2024/04/16 00:06:00;;;;;;;18.10;8.45;;;;;;;19.37;37.37;94160.91;5491036;26;20009;-67
2024/04/16 00:08:26;;;;;;;14.77;8.10;;;;;;;19.47;38.06;94174.50;5460739;26;20339;-66
2024/04/16 00:10:51;;;;;;;13.02;7.32;;;;;;;19.67;39.57;94179.06;5525440;26;20001;-66
2024/04/16 00:13:16;;;;;;;11.80;8.30;;;;;;;19.33;39.91;94157.03;5525795;26;20005;-67
2024/04/16 00:15:42;;;;;;;16.73;8.75;;;;;;;19.26;39.93;94167.56;5491674;26;20295;-66
2024/04/16 00:18:07;;;;;;;12.18;8.40;;;;;;;19.08;40.51;94170.69;5525731;26;20001;-66
2024/04/16 00:20:33;;;;;;;14.40;7.88;;;;;;;19.12;41.71;94186.91;5525845;26;19989;-66
2024/04/16 00:22:58;;;;;;;15.45;8.85;;;;;;;18.96;41.10;94180.16;5525498;26;20017;-66
2024/04/16 00:25:23;;;;;;;14.77;9.38;;;;;;;18.67;41.65;94197.75;5497778;26;20026;-67
2024/04/16 00:27:49;;;;;;;14.65;8.02;;;;;;;18.81;42.77;94201.31;5488646;26;19994;-66
2024/04/16 00:30:14;;;;;;;14.23;9.15;;;;;;;18.15;43.60;94172.66;5456631;26;20005;-66
2024/04/16 00:32:40;;;;;;;13.40;9.25;;;;;;;18.07;43.77;94196.44;5508103;26;20305;-66
2024/04/16 00:35:05;;;;;;;14.13;9.07;;;;;;;18.00;43.69;94192.94;5488153;26;19991;-67
2024/04/16 00:37:31;;;;;;;13.77;8.52;;;;;;;17.78;44.77;94179.78;5450046;26;20019;-66
2024/04/16 00:39:56;;;;;;;12.80;8.50;;;;;;;17.76;44.51;94205.38;5452011;26;19999;-66
2024/04/16 00:42:21;;;;;;;16.17;9.20;;;;;;;17.82;44.63;94199.41;5451829;26;20002;-66
2024/04/16 00:44:47;;;;;;;12.38;9.05;;;;;;;17.69;45.40;94191.38;5451818;26;20497;-66
2024/04/16 00:47:14;;;;;;;19.75;9.13;;;;;;;17.50;46.01;94219.03;5451941;26;20010;-67
2024/04/16 00:49:39;;;;;;;20.83;10.65;;;;;;;17.75;46.88;94211.66;5452310;26;20009;-66
2024/04/16 00:52:05;;;;;;;16.58;8.65;;;;;;;17.64;46.00;94207.69;5451668;26;19999;-66
2024/04/16 00:54:30;;;;;;;13.27;8.52;;;;;;;17.39;46.78;94195.88;5450102;26;20027;-67
2024/04/16 00:56:56;;;;;;;16.67;9.07;;;;;;;17.36;45.60;94218.06;5451817;26;20010;-66
2024/04/16 00:59:25;;;;;;;16.20;9.20;;;;;;;17.33;46.26;94215.00;5420048;26;20064;-67
2024/04/16 01:01:53;;;;;;;13.43;9.02;;;;;;;17.16;46.80;94180.22;5447647;26;19994;-66
2024/04/16 01:04:18;;;;;;;16.13;8.90;;;;;;;17.26;46.54;94207.00;5486433;26;19998;-66
2024/04/16 01:06:43;;;;;;;14.95;9.23;;;;;;;17.38;48.47;94213.44;5469539;26;20437;-66
2024/04/16 01:09:09;;;;;;;17.63;8.65;;;;;;;17.27;47.70;94195.50;5456025;26;19990;-67
2024/04/16 01:11:34;;;;;;;16.25;8.80;;;;;;;17.19;48.82;94190.38;5423441;26;20007;-67
2024/04/16 01:14:00;;;;;;;14.52;9.10;;;;;;;16.88;47.89;94204.50;5455118;26;20001;-67
2024/04/16 01:16:25;;;;;;;11.60;8.55;;;;;;;16.82;48.18;94210.44;5453483;26;19995;-67
2024/04/16 01:18:50;;;;;;;12.43;9.30;;;;;;;16.68;49.25;94185.81;5464653;26;20379;-66
2024/04/16 01:21:16;;;;;;;13.85;8.63;;;;;;;16.03;50.67;94175.91;5491345;26;19990;-66
2024/04/16 01:23:41;;;;;;;15.90;8.82;;;;;;;16.06;50.16;94217.47;5489337;26;19994;-66
2024/04/16 01:26:07;;;;;;;14.57;9.48;;;;;;;16.25;50.47;94209.16;5489662;26;19994;-66
2024/04/16 01:28:32;;;;;;;17.27;9.55;;;;;;;16.18;50.17;94199.53;5488540;26;19994;-66
2024/04/16 01:30:58;;;;;;;15.25;8.88;;;;;;;16.26;49.29;94212.56;5459442;26;20432;-66
2024/04/16 01:33:23;;;;;;;16.05;9.30;;;;;;;16.35;50.33;94219.38;5491039;26;20008;-66
2024/04/16 01:35:49;;;;;;;14.85;9.07;;;;;;;16.40;50.17;94201.31;5491377;26;19997;-66
2024/04/16 01:38:14;;;;;;;13.85;8.73;;;;;;;16.22;51.39;94216.56;5457991;26;20006;-66
2024/04/16 01:40:39;;;;;;;14.23;8.85;;;;;;;16.30;50.77;94208.63;5490991;26;20077;-66
2024/04/16 01:43:05;;;;;;;13.73;8.68;;;;;;;16.24;51.42;94189.19;5458106;26;20004;-66
2024/04/16 01:45:30;;;;;;;13.27;8.52;;;;;;;15.99;51.13;94204.28;5453967;26;20000;-66
2024/04/16 01:47:56;;;;;;;13.82;8.95;;;;;;;15.97;52.48;94180.06;5468815;26;20041;-66
2024/04/16 01:50:21;;;;;;;15.00;9.57;;;;;;;16.14;51.96;94190.41;5491321;26;20428;-66
2024/04/16 01:52:46;;;;;;;16.23;9.00;;;;;;;15.82;52.06;94187.88;5490818;26;20488;-66
2024/04/16 01:55:12;;;;;;;14.38;8.80;;;;;;;15.92;53.57;94192.03;5476616;26;19998;-66
2024/04/16 01:57:39;;;;;;;12.50;9.05;;;;;;;15.93;52.58;94183.19;5452902;26;20444;-66
2024/04/16 02:00:08;;;;;;;13.40;8.60;;;;;;;15.64;50.87;94146.22;5468233;26;19994;-66
2024/04/16 02:02:37;;;;;;;14.43;8.80;;;;;;;15.78;52.86;94180.53;5459535;26;20018;-66
2024/04/16 02:05:03;;;;;;;14.52;9.20;;;;;;;15.97;52.62;94184.47;5464514;26;19991;-66
2024/04/16 02:07:28;;;;;;;14.52;9.38;;;;;;;16.01;52.97;94173.47;5452452;26;19997;-66
2024/04/16 02:09:53;;;;;;;15.48;8.80;;;;;;;15.74;53.88;94179.22;5466315;26;20004;-66
2024/04/16 02:12:19;;;;;;;16.20;9.63;;;;;;;15.67;54.32;94186.13;5489733;26;20453;-65
2024/04/16 02:14:44;;;;;;;13.77;8.45;;;;;;;15.74;53.63;94174.81;5487689;26;19994;-67
2024/04/16 02:17:10;;;;;;;15.85;9.02;;;;;;;15.72;54.20;94168.94;5489904;26;19994;-66
2024/04/16 02:19:35;;;;;;;14.98;8.85;;;;;;;15.54;54.29;94156.06;5489367;26;19995;-66
2024/04/16 02:22:01;;;;;;;16.02;9.63;;;;;;;15.53;54.33;94170.16;5488040;26;20337;-66
2024/04/16 02:24:26;;;;;;;20.83;10.20;;;;;;;15.57;54.24;94161.00;5488318;26;20034;-66
2024/04/16 02:26:51;;;;;;;15.27;9.77;;;;;;;15.58;53.54;94159.19;5458293;26;20444;-66
2024/04/16 02:29:17;;;;;;;14.35;9.05;;;;;;;15.59;54.20;94153.75;5488847;26;20022;-65
2024/04/16 02:31:42;;;;;;;19.67;10.50;;;;;;;15.52;53.80;94155.47;5486582;26;20008;-66
2024/04/16 02:34:08;;;;;;;15.40;8.27;;;;;;;15.67;52.41;94152.09;5488751;26;20035;-66
2024/04/16 02:36:35;;;;;;;19.35;7.95;;;;;;;15.72;50.57;94149.81;5494464;26;20462;-66
2024/04/16 02:39:00;;;;;;;14.07;8.30;;;;;;;15.77;51.25;94156.16;5464111;26;20365;-66
2024/04/16 02:41:26;;;;;;;16.17;8.48;;;;;;;15.60;51.35;94131.84;5498345;26;20008;-66
2024/04/16 02:43:51;;;;;;;17.10;8.15;;;;;;;15.79;50.34;94169.84;5490097;26;20002;-66
2024/04/16 02:46:17;;;;;;;15.25;9.43;;;;;;;15.94;51.12;94167.31;5490485;26;20005;-66
2024/04/16 02:48:42;;;;;;;17.67;9.93;;;;;;;15.98;51.20;94173.81;5479127;26;19998;-67
2024/04/16 02:51:12;;;;;;;15.82;9.68;;;;;;;15.96;51.43;94164.50;5527199;26;19989;-67
2024/04/16 02:53:37;;;;;;;20.25;9.40;;;;;;;15.77;50.96;94165.81;5527065;26;20004;-67
2024/04/16 02:56:02;;;;;;;15.65;8.50;;;;;;;15.94;51.92;94169.94;5526678;26;19985;-67
2024/04/16 02:58:28;;;;;;;16.60;9.25;;;;;;;15.79;51.78;94176.91;5514431;26;20417;-68
2024/04/16 03:00:53;;;;;;;13.65;8.77;;;;;;;15.90;51.60;94170.44;5457585;26;19998;-67
2024/04/16 03:03:18;;;;;;;15.95;8.45;;;;;;;15.79;52.10;94158.56;5489954;26;20030;-67
2024/04/16 03:05:44;;;;;;;22.80;8.63;;;;;;;15.74;51.99;94158.28;5490270;26;20030;-67
2024/04/16 03:08:09;;;;;;;14.98;8.73;;;;;;;15.54;51.80;94142.19;5489383;26;19994;-67
2024/04/16 03:10:39;;;;;;;12.40;8.02;;;;;;;15.39;52.88;94147.34;5490318;26;19997;-67
2024/04/16 03:13:04;;;;;;;15.18;8.48;;;;;;;15.58;52.91;94149.53;5460306;26;20392;-67
2024/04/16 03:15:29;;;;;;;17.85;8.45;;;;;;;15.52;52.45;94150.22;5494149;26;19997;-67
2024/04/16 03:17:55;;;;;;;15.20;8.30;;;;;;;15.49;52.62;94145.34;5493842;25;20367;-67
2024/04/16 03:20:20;;;;;;;14.02;8.27;;;;;;;15.40;53.14;94134.06;5489898;26;19998;-67
2024/04/16 03:22:46;;;;;;;14.98;8.60;;;;;;;15.23;52.69;94126.50;5457455;26;20068;-67
2024/04/16 03:25:12;;;;;;;13.55;8.23;;;;;;;15.05;52.84;94113.69;5457135;26;20001;-66
2024/04/16 03:27:38;;;;;;;15.63;7.93;;;;;;;15.07;53.60;94143.94;5489547;26;19997;-67
2024/04/16 03:30:04;;;;;;;19.60;7.93;;;;;;;14.89;53.24;94136.31;5456447;26;19994;-67
2024/04/16 03:32:29;;;;;;;12.23;7.32;;;;;;;14.97;51.17;94125.81;5452856;26;20512;-67
2024/04/16 03:34:54;;;;;;;14.10;8.25;;;;;;;14.81;52.76;94138.94;5485888;26;20045;-67
2024/04/16 03:37:20;;;;;;;14.57;7.43;;;;;;;14.93;53.65;94142.84;5456379;26;20451;-67
2024/04/16 03:39:45;;;;;;;12.63;7.20;;;;;;;14.99;53.76;94143.97;5488636;26;20021;-67
2024/04/16 03:42:11;;;;;;;16.45;8.38;;;;;;;14.92;52.45;94137.75;5456842;26;20014;-68
2024/04/16 03:44:36;;;;;;;14.40;7.78;;;;;;;14.84;53.01;94132.56;5489392;26;20078;-67
2024/04/16 03:47:01;;;;;;;17.33;9.00;;;;;;;14.86;53.09;94141.06;5486205;26;20004;-67
2024/04/16 03:49:27;;;;;;;12.60;7.72;;;;;;;14.82;54.33;94156.28;5526071;26;19990;-67
2024/04/16 03:51:52;;;;;;;15.73;9.00;;;;;;;14.78;54.46;94154.16;5493818;26;20092;-67
2024/04/16 03:54:18;;;;;;;18.80;8.48;;;;;;;14.78;54.56;94156.78;5461254;26;20026;-67
2024/04/16 03:56:43;;;;;;;17.50;8.88;;;;;;;14.82;54.21;94168.50;5493824;26;19989;-67
2024/04/16 04:02:19;;;;;;;13.20;8.07;;;;;;;14.69;55.25;94159.41;5377934;26;20004;-67
2024/04/16 04:04:45;;;;;;;14.57;8.00;;;;;;;14.61;56.35;94176.91;5378209;26;20109;-67
2024/04/16 04:07:10;;;;;;;17.25;8.10;;;;;;;14.64;55.20;94179.19;5420067;25;19986;-67
2024/04/16 04:09:36;;;;;;;15.70;7.97;;;;;;;14.44;55.08;94163.03;5550644;25;19994;-67
2024/04/16 04:12:01;;;;;;;14.48;7.93;;;;;;;14.47;55.27;94186.22;5526269;26;20030;-67
2024/04/16 04:14:26;;;;;;;15.77;7.38;;;;;;;14.71;54.17;94175.75;5525246;26;20001;-67
2024/04/16 04:16:52;;;;;;;10.77;6.43;;;;;;;14.58;55.31;94162.38;5525208;25;20480;-67
2024/04/16 04:19:18;;;;;;;14.30;7.13;;;;;;;14.52;55.43;94182.16;5462523;26;20027;-67
2024/04/16 04:21:43;;;;;;;11.20;6.88;;;;;;;14.66;55.17;94179.84;5492657;26;19994;-67
2024/04/16 04:24:10;;;;;;;12.32;7.03;;;;;;;14.46;55.08;94195.88;5554577;25;20037;-67
2024/04/16 04:26:35;;;;;;;18.45;9.45;;;;;;;14.59;54.61;94190.16;5525506;25;20331;-67
2024/04/16 04:29:00;;;;;;;16.52;8.43;;;;;;;14.49;55.24;94164.19;5492056;26;20001;-67
2024/04/16 04:31:26;;;;;;;14.15;8.35;;;;;;;14.35;54.39;94154.41;5525466;26;19998;-68
2024/04/16 04:33:51;;;;;;;19.83;8.98;;;;;;;14.67;54.29;94187.50;5525321;26;19998;-67
2024/04/16 04:36:17;;;;;;;13.77;8.40;;;;;;;14.79;54.02;94163.63;5525315;25;20454;-68
2024/04/16 04:38:42;;;;;;;17.48;7.88;;;;;;;14.98;52.46;94178.91;5491563;25;20013;-67
2024/04/16 04:41:08;;;;;;;14.98;7.65;;;;;;;15.13;56.12;94194.75;5522803;25;20021;-68
2024/04/16 04:43:34;;;;;;;16.17;7.97;;;;;;;15.19;55.38;94192.25;5532399;25;19993;-67
2024/04/16 04:45:59;;;;;;;14.73;8.25;;;;;;;15.15;54.85;94185.72;5530028;25;20005;-67
2024/04/16 04:48:25;;;;;;;13.43;8.02;;;;;;;15.31;55.53;94176.97;5532874;25;20340;-67
2024/04/16 04:50:50;;;;;;;13.68;7.95;;;;;;;15.34;52.86;94191.53;5527933;25;20029;-67
2024/04/16 04:53:15;;;;;;;18.25;8.98;;;;;;;15.16;57.14;94194.41;5532110;25;20004;-67
2024/04/16 04:55:41;;;;;;;14.38;8.02;;;;;;;15.30;57.05;94190.25;5532731;26;19989;-67
2024/04/16 04:58:06;;;;;;;19.15;8.98;;;;;;;15.35;56.79;94180.91;5529810;25;21011;-67
2024/04/16 05:00:32;;;;;;;20.80;8.57;;;;;;;15.41;54.84;94184.63;5496338;26;20018;-67
2024/04/16 05:02:58;;;;;;;20.88;8.95;;;;;;;15.64;54.08;94190.72;5497564;26;20122;-67
2024/04/16 05:05:23;;;;;;;13.63;7.30;;;;;;;16.01;58.59;94194.41;5466419;25;20014;-67
2024/04/16 05:07:49;;;;;;;20.15;8.10;;;;;;;16.03;52.62;94191.63;5521005;26;20453;-68
2024/04/16 05:10:14;;;;;;;17.88;8.43;;;;;;;16.21;57.03;94191.31;5529001;26;20068;-67
2024/04/16 05:12:39;;;;;;;14.27;7.32;;;;;;;16.23;54.28;94184.09;5499325;26;20005;-68
2024/04/16 05:15:05;;;;;;;17.73;8.02;;;;;;;16.43;56.91;94190.47;5461141;26;20013;-67
2024/04/16 05:17:30;;;;;;;15.98;7.80;;;;;;;16.54;55.03;94170.88;5497035;25;20009;-68
2024/04/16 05:19:56;;;;;;;13.95;7.68;;;;;;;16.56;57.21;94179.38;5526936;26;19993;-68
2024/04/16 05:22:21;;;;;;;15.27;7.65;;;;;;;16.80;58.14;94167.03;5502907;26;20138;-67
2024/04/16 05:24:47;;;;;;;14.52;7.60;;;;;;;16.97;58.01;94169.31;5528477;26;20033;-67
2024/04/16 05:27:12;;;;;;;14.90;8.27;;;;;;;16.80;57.29;94157.38;5492126;26;19996;-67
2024/04/16 05:29:37;;;;;;;23.55;8.27;;;;;;;16.83;54.87;94162.25;5485693;25;20490;-67
2024/04/16 05:32:04;;;;;;;15.85;8.00;;;;;;;16.97;51.81;94150.94;5500271;26;20001;-66
2024/04/16 05:34:30;;;;;;;16.33;7.78;;;;;;;17.50;54.53;94165.72;5531657;26;20327;-66
2024/04/16 05:36:55;;;;;;;16.40;8.02;;;;;;;17.88;54.49;94160.25;5517332;25;20035;-66
2024/04/16 05:39:21;;;;;;;17.95;8.32;;;;;;;17.99;54.94;94146.63;5495970;26;20156;-66
2024/04/16 05:41:46;;;;;;;16.92;9.25;;;;;;;17.79;54.43;94168.25;5465356;26;20004;-66
2024/04/16 05:44:11;;;;;;;18.35;8.80;;;;;;;17.89;52.30;94175.03;5497884;26;20067;-66
2024/04/16 05:46:37;;;;;;;18.92;9.43;;;;;;;17.84;49.20;94173.78;5533750;25;19993;-66
2024/04/16 05:49:02;;;;;;;16.58;8.68;;;;;;;18.18;54.82;94169.63;5531317;26;20351;-65
2024/04/16 05:51:28;;;;;;;21.20;8.45;;;;;;;18.23;51.11;94164.63;5531180;25;20432;-66
2024/04/16 05:53:53;;;;;;;19.98;9.65;;;;;;;18.00;51.79;94166.66;5491526;26;20463;-65
2024/04/16 05:56:18;;;;;;;17.05;9.48;;;;;;;17.79;53.48;94168.25;5492208;25;20065;-66
2024/04/16 05:58:44;;;;;;;21.73;9.55;;;;;;;17.68;53.65;94163.47;5500540;26;20565;-66
2024/04/16 06:01:09;;;;;;;20.10;8.85;;;;;;;18.00;51.24;94171.91;5465876;26;20002;-66
2024/04/16 06:03:35;;;;;;;25.80;9.70;;;;;;;17.92;50.62;94164.16;5463175;26;20064;-66
2024/04/16 06:06:00;;;;;;;19.73;8.88;;;;;;;18.31;49.82;94161.06;5490719;25;20343;-66
2024/04/16 06:08:25;;;;;;;19.67;9.38;;;;;;;18.49;50.17;94168.47;5519456;25;20001;-66
2024/04/16 06:10:51;;;;;;;21.88;9.13;;;;;;;18.23;50.65;94169.88;5525404;25;20012;-66
2024/04/16 06:13:16;;;;;;;24.88;10.20;;;;;;;18.27;48.66;94175.56;5540520;25;20009;-66
2024/04/16 06:15:42;;;;;;;23.80;9.05;;;;;;;18.56;47.37;94160.66;5532915;25;20479;-65
2024/04/16 06:18:12;;;;;;;22.13;10.13;;;;;;;18.64;48.53;94158.69;5492579;26;20016;-65
2024/04/16 06:20:37;;;;;;;23.17;10.65;;;;;;;18.82;48.87;94157.41;5495421;26;19989;-65
2024/04/16 06:23:03;;;;;;;24.77;10.18;;;;;;;18.94;47.61;94151.41;5494815;26;20005;-64
2024/04/16 06:25:28;;;;;;;24.00;10.30;;;;;;;18.99;47.35;94145.53;5493628;26;20009;-65
2024/04/16 06:27:57;;;;;;;23.10;9.90;;;;;;;19.04;47.30;94145.78;5521556;25;20001;-64
2024/04/16 06:30:24;;;;;;;21.25;10.25;;;;;;;19.06;47.37;94135.88;5521644;26;19997;-65
2024/04/16 06:32:49;;;;;;;24.50;10.30;;;;;;;18.75;48.47;94139.75;5523132;25;20009;-65
2024/04/16 06:35:15;;;;;;;32.75;9.75;;;;;;;18.65;48.55;94138.44;5491076;26;20451;-64
2024/04/16 06:37:40;;;;;;;26.00;9.73;;;;;;;18.46;48.34;94126.78;5523267;25;20205;-65
2024/04/16 06:40:07;;;;;;;16.70;9.30;;;;;;;18.55;48.49;94128.25;5523601;26;20014;-65
2024/04/16 06:42:32;;;;;;;29.10;9.63;;;;;;;18.46;48.67;94121.53;5526242;25;19989;-65
2024/04/16 06:44:58;;;;;;;32.70;9.77;;;;;;;18.47;48.30;94112.63;5494225;26;20062;-65
2024/04/16 06:47:23;;;;;;;27.05;8.95;;;;;;;18.52;47.31;94115.50;5494852;26;19989;-65
2024/04/16 06:49:49;;;;;;;24.90;9.82;;;;;;;18.89;46.55;94113.53;5464316;26;19997;-65
2024/04/16 06:52:14;;;;;;;28.80;9.43;;;;;;;18.87;45.23;94110.28;5494380;26;20000;-65
2024/04/16 06:54:39;;;;;;;22.00;8.65;;;;;;;19.03;48.91;94099.41;5494515;26;19989;-65
2024/04/16 06:57:05;;;;;;;26.90;8.80;;;;;;;19.14;47.97;94108.56;5526833;25;19997;-64
2024/04/16 06:59:31;;;;;;;24.83;9.52;;;;;;;19.03;45.84;94104.69;5526684;26;20428;-65
2024/04/16 07:01:56;;;;;;;25.35;9.35;;;;;;;18.94;44.92;94100.56;5527171;25;20050;-65
2024/04/16 07:04:21;;;;;;;17.83;8.38;;;;;;;19.29;46.68;94095.25;5527061;26;20004;-65
2024/04/16 07:06:47;;;;;;;21.83;8.73;;;;;;;19.35;46.81;94089.19;5463917;26;20037;-64
2024/04/16 07:09:12;;;;;;;14.45;8.40;;;;;;;19.35;45.82;94087.38;5527152;26;20447;-65
2024/04/16 07:11:38;;;;;;;17.30;8.23;;;;;;;19.37;46.72;94074.00;5526636;25;20005;-64
2024/04/16 07:14:03;;;;;;;20.05;8.32;;;;;;;19.23;48.10;94088.97;5463896;26;20017;-64
2024/04/16 07:16:31;;;;;;;16.58;8.10;;;;;;;19.55;47.80;94086.59;5526842;25;20066;-64
2024/04/16 07:18:56;;;;;;;18.67;8.95;;;;;;;19.72;47.17;94066.78;5464680;26;20001;-65
2024/04/16 07:21:21;;;;;;;15.18;8.55;;;;;;;19.79;46.85;94072.91;5494261;26;20035;-64
2024/04/16 07:23:47;;;;;;;17.67;8.18;;;;;;;19.93;49.49;94065.81;5526694;26;20446;-64
2024/04/16 07:26:12;;;;;;;23.77;8.80;;;;;;;19.90;48.86;94074.13;5526522;25;20468;-64
2024/04/16 07:28:38;;;;;;;20.40;8.75;;;;;;;19.77;47.30;94074.09;5526315;26;20009;-64
2024/04/16 07:31:03;;;;;;;17.88;8.38;;;;;;;20.11;46.94;94082.84;5526121;25;19993;-64
2024/04/16 07:33:30;;;;;;;21.02;8.65;;;;;;;20.25;47.39;94073.91;5526308;26;19998;-65
2024/04/16 07:35:55;;;;;;;21.45;8.00;;;;;;;20.23;46.79;94044.31;5526168;25;19989;-64
2024/04/16 07:38:21;;;;;;;18.45;8.43;;;;;;;20.56;43.44;94067.19;5463554;26;20483;-64
2024/04/16 07:40:52;;;;;;;23.15;7.70;;;;;;;20.56;42.98;94067.19;5494069;26;19989;-64
2024/04/16 07:43:18;;;;;;;15.82;8.88;;;;;;;20.46;42.32;94059.69;5526835;26;20091;-64
2024/04/16 07:45:44;;;;;;;23.63;8.75;;;;;;;20.50;41.20;94058.25;5463667;26;20009;-65
2024/04/16 07:48:09;;;;;;;13.50;7.65;;;;;;;20.72;42.32;94058.84;5493993;26;20025;-64
2024/04/16 07:50:35;;;;;;;16.33;7.97;;;;;;;20.83;43.99;94071.38;5493864;26;20038;-64
2024/04/16 07:53:00;;;;;;;20.83;8.40;;;;;;;20.74;42.59;94064.72;5493560;26;20388;-64
2024/04/16 07:55:25;;;;;;;24.83;8.30;;;;;;;20.91;42.01;94063.25;5493754;26;19997;-64
2024/04/16 07:57:51;;;;;;;12.73;7.05;;;;;;;21.19;40.96;94056.84;5526434;25;20011;-64
2024/04/16 08:00:16;;;;;;;13.73;7.90;;;;;;;21.19;42.48;94033.88;5493731;26;20001;-64
2024/04/16 08:02:42;;;;;;;18.20;8.07;;;;;;;21.41;44.91;94066.09;5526317;25;19993;-64
2024/04/16 08:05:07;;;;;;;19.20;8.50;;;;;;;21.14;43.57;94052.16;5493610;26;19993;-64
2024/04/16 08:07:32;;;;;;;17.23;7.93;;;;;;;21.18;43.50;94053.38;5463597;26;20443;-64
2024/04/16 08:09:59;;;;;;;19.30;7.18;;;;;;;21.00;37.12;94068.28;5526229;26;19993;-64
2024/04/16 08:12:24;;;;;;;12.70;6.55;;;;;;;21.10;36.53;94068.66;5493406;26;20316;-64
2024/04/16 08:14:50;;;;;;;11.65;6.88;;;;;;;21.09;38.50;94057.28;5525850;26;19999;-65
2024/04/16 08:17:16;;;;;;;11.52;7.00;;;;;;;20.93;37.70;94036.66;5462123;26;20003;-64
2024/04/16 08:19:41;;;;;;;16.38;6.63;;;;;;;20.72;37.12;94051.72;5494008;26;20439;-64
2024/04/16 08:22:07;;;;;;;10.77;6.90;;;;;;;20.69;37.31;94046.06;5493714;26;20571;-64
2024/04/16 08:24:32;;;;;;;15.38;7.45;;;;;;;20.78;36.96;94050.09;5525799;26;20439;-64
2024/04/16 08:26:58;;;;;;;20.73;7.25;;;;;;;21.01;37.13;94057.53;5525606;25;20001;-64
2024/04/16 08:29:23;;;;;;;17.10;6.57;;;;;;;21.11;36.91;94052.59;5493091;26;20005;-64
2024/04/16 08:31:48;;;;;;;16.40;6.93;;;;;;;21.37;36.62;94058.81;5492943;26;20001;-64
2024/04/16 08:34:14;;;;;;;17.23;6.93;;;;;;;21.71;36.69;94049.66;5492851;26;20001;-64
2024/04/16 08:36:39;;;;;;;14.70;7.75;;;;;;;21.61;38.71;94041.38;5525457;25;20427;-64
2024/04/16 08:39:06;;;;;;;17.00;6.53;;;;;;;21.68;38.01;94021.03;5525349;26;20030;-64
2024/04/16 08:41:34;;;;;;;22.63;7.57;;;;;;;21.70;39.09;94029.53;5525637;25;20000;-64
2024/04/16 08:44:00;;;;;;;14.02;6.80;;;;;;;21.67;38.55;94026.50;5463017;26;19997;-64
2024/04/16 08:46:25;;;;;;;19.67;7.03;;;;;;;21.40;38.41;94022.22;5460576;26;20374;-64
2024/04/16 08:48:50;;;;;;;15.20;6.97;;;;;;;21.82;38.05;94035.75;5462594;26;20420;-64
2024/04/16 08:51:16;;;;;;;22.75;7.53;;;;;;;22.09;38.51;94032.88;5462427;26;20064;-64
2024/04/16 08:53:42;;;;;;;17.02;7.55;;;;;;;22.26;38.36;94041.94;5525211;26;19997;-64
2024/04/16 08:56:09;;;;;;;14.93;6.90;;;;;;;22.50;38.19;94026.22;5525185;25;20345;-64
2024/04/16 08:58:34;;;;;;;12.80;6.63;;;;;;;22.66;38.01;94023.00;5525180;26;19994;-64
2024/04/16 09:00:59;;;;;;;14.13;6.75;;;;;;;22.89;37.77;94037.41;5524790;25;19989;-64
2024/04/16 09:03:25;;;;;;;11.77;6.90;;;;;;;22.77;37.37;94031.25;5462502;26;20012;-64
2024/04/16 09:05:50;;;;;;;14.60;7.15;;;;;;;22.82;36.92;94020.81;5462594;25;20087;-64
2024/04/16 09:08:16;;;;;;;13.85;6.60;;;;;;;22.66;36.92;94024.84;5461852;26;19997;-64
2024/04/16 09:10:43;;;;;;;18.92;7.28;;;;;;;22.22;36.52;94024.88;5524629;26;19997;-64
2024/04/16 09:13:10;;;;;;;14.98;7.32;;;;;;;22.15;37.07;94023.28;5492307;26;19998;-64
2024/04/16 09:15:37;;;;;;;15.32;7.00;;;;;;;22.53;36.63;94017.84;5524437;26;20066;-64
2024/04/16 09:18:03;;;;;;;15.15;7.65;;;;;;;22.80;36.60;94025.50;5462952;26;20030;-64
2024/04/16 09:20:28;;;;;;;19.48;6.80;;;;;;;22.93;37.89;94020.06;5524425;26;20004;-64
2024/04/16 09:22:54;;;;;;;18.13;6.85;;;;;;;22.92;37.09;94013.13;5524574;25;20022;-64
2024/04/16 09:25:20;;;;;;;14.27;6.50;;;;;;;22.91;36.03;94003.59;5524755;26;20413;-65
2024/04/16 09:27:49;;;;;;;12.85;6.30;;;;;;;22.96;36.15;94006.41;5491710;26;20014;-64
2024/04/16 09:30:14;;;;;;;13.30;6.25;;;;;;;22.80;35.43;93993.75;5465102;26;20003;-64
2024/04/16 09:32:42;;;;;;;15.80;6.82;;;;;;;22.70;37.01;94000.34;5495647;26;20327;-64
2024/04/16 09:35:08;;;;;;;20.05;6.93;;;;;;;22.68;38.38;93996.31;5528130;26;20000;-64
2024/04/16 09:37:33;;;;;;;14.65;6.93;;;;;;;22.63;38.52;93989.03;5465027;26;19993;-64
2024/04/16 09:39:59;;;;;;;19.42;7.18;;;;;;;22.40;40.61;93983.59;5465440;26;20097;-64
2024/04/16 09:42:29;;;;;;;15.60;6.38;;;;;;;22.55;39.17;93978.75;5465225;26;20026;-64
2024/04/16 09:44:55;;;;;;;21.20;6.95;;;;;;;22.63;37.30;93981.09;5528370;26;20004;-64
2024/04/16 09:47:20;;;;;;;15.70;6.30;;;;;;;22.58;37.24;93967.72;5496039;26;20331;-64
2024/04/16 09:49:46;;;;;;;14.80;6.32;;;;;;;22.78;37.42;93964.81;5434844;26;20034;-64
2024/04/16 09:52:12;;;;;;;16.35;6.88;;;;;;;22.85;37.61;93951.53;5465274;26;20442;-64
2024/04/16 09:54:37;;;;;;;15.80;6.78;;;;;;;23.15;38.25;93959.47;5495932;26;20017;-64
2024/04/16 09:57:03;;;;;;;17.88;6.68;;;;;;;22.93;38.09;93945.94;5495805;26;19990;-64
2024/04/16 09:59:28;;;;;;;17.10;7.32;;;;;;;22.91;37.56;93929.44;5495398;26;20009;-65
2024/04/16 10:01:53;;;;;;;23.33;6.45;;;;;;;22.80;36.25;93951.38;5465155;26;20022;-64
2024/04/16 10:04:19;;;;;;;20.42;6.72;;;;;;;23.05;37.01;93953.94;5465012;26;20348;-64
2024/04/16 10:06:46;;;;;;;14.90;6.32;;;;;;;23.05;38.66;93930.91;5495734;26;20001;-64
2024/04/16 10:09:17;;;;;;;20.92;6.35;;;;;;;23.02;36.13;93944.59;5495806;26;20000;-64
2024/04/16 10:11:43;;;;;;;27.13;5.40;;;;;;;23.05;34.48;93940.69;5528058;25;20021;-64
2024/04/16 10:14:08;;;;;;;23.05;6.00;;;;;;;23.23;37.34;93930.03;5527613;26;20106;-65
2024/04/16 10:16:33;;;;;;;35.10;7.03;;;;;;;22.92;34.33;93926.56;5495352;26;20001;-64
2024/04/16 10:18:59;;;;;;;30.45;5.85;;;;;;;23.10;31.52;93923.09;5494815;26;20081;-64
2024/04/16 10:21:25;;;;;;;25.88;5.57;;;;;;;23.18;33.14;93922.78;5464606;26;19998;-65
2024/04/16 10:24:00;;;;;;;24.75;5.43;;;;;;;23.06;31.87;93913.16;5464646;26;20073;-65
2024/04/16 10:26:36;;;;;;;29.13;5.70;;;;;;;23.04;32.39;93917.88;5527568;25;19994;-65
2024/04/16 10:29:02;;;;;;;27.35;6.57;;;;;;;23.02;32.25;93914.66;5527520;26;20087;-65
2024/04/16 10:31:33;;;;;;;29.38;5.80;;;;;;;23.10;30.56;93909.84;5527248;25;20378;-65
2024/04/16 10:34:00;;;;;;;27.63;6.18;;;;;;;23.06;30.69;93911.31;5527130;26;20008;-65
2024/04/16 10:36:26;;;;;;;31.85;6.25;;;;;;;23.09;31.89;93904.78;5494476;26;19993;-65
2024/04/16 10:38:52;;;;;;;34.53;6.43;;;;;;;23.15;30.53;93915.28;5494828;26;20009;-65
2024/04/16 10:41:28;;;;;;;28.52;5.55;;;;;;;23.23;30.21;93908.84;5526866;25;19993;-65
2024/04/16 10:43:54;;;;;;;28.35;5.80;;;;;;;23.31;30.59;93899.75;5527585;26;20066;-65
2024/04/16 10:46:20;;;;;;;33.83;6.22;;;;;;;23.34;29.82;93891.34;5527333;25;19990;-65
2024/04/16 10:48:45;;;;;;;33.13;6.22;;;;;;;23.50;29.99;93897.84;5494668;26;20503;-65
2024/04/16 10:51:14;;;;;;;30.95;5.85;;;;;;;23.51;30.16;93892.28;5464138;25;19990;-65
2024/04/16 10:53:40;;;;;;;24.70;5.68;;;;;;;23.66;31.12;93897.16;5494795;26;20530;-65
2024/04/16 10:56:09;;;;;;;31.98;6.10;;;;;;;23.66;31.41;93886.56;5527139;25;19998;-65
2024/04/16 10:58:34;;;;;;;24.42;5.55;;;;;;;23.70;30.67;93884.25;5464814;26;20009;-65
2024/04/16 11:01:01;;;;;;;35.08;7.18;;;;;;;23.64;30.05;93884.13;5464273;25;20022;-65
2024/04/16 11:03:26;;;;;;;31.80;5.50;;;;;;;23.69;31.17;93866.75;5494896;26;20428;-65
2024/04/16 11:05:51;;;;;;;24.42;5.60;;;;;;;23.40;30.75;93871.88;5434175;25;19989;-65
2024/04/16 11:08:17;;;;;;;30.05;6.43;;;;;;;23.53;30.21;93871.69;5494313;26;19993;-65
2024/04/16 11:10:49;;;;;;;30.58;5.68;;;;;;;23.46;30.67;93865.69;5494455;26;20005;-65
2024/04/16 11:13:15;;;;;;;22.65;4.70;;;;;;;23.55;30.39;93874.13;5495771;26;19998;-64
2024/04/16 11:15:41;;;;;;;28.40;6.13;;;;;;;23.56;31.98;93879.16;5464251;26;20001;-64
2024/04/16 11:18:06;;;;;;;23.92;6.00;;;;;;;23.80;31.18;93869.41;5494017;26;20038;-64
2024/04/16 11:20:31;;;;;;;40.70;8.35;;;;;;;23.75;32.52;93879.09;5526677;26;20385;-63